Ana Sayfa
METAR-TAF:

METAR-TAF

Havaalanları :

Prenses Juliana Uluslararası Havaalanı

Sint Maarten, Hollanda Antilleri

Enlem: 18-03N, Boylam: 063-07W, yükseklik: 4 m

Güncel hava durumu gözlemi

Rapor saat 14:00 UTC de 9 dakika önce yapıldı.
Rüzgar güneydoğudan 3 kt, doğu ve güney/güneybatı arasında değişken
Sıcaklık 30°C
Nem 62%
Basınç 1015 hPa
Görüş mesafesi 10 km veya daha fazla
1800 ft yükseklikte az bulutlu

METAR: TNCM 041400Z 14003KT 090V200 9999 FEW018 30/22 Q1015 NOSIG

Saat: 10:09 (14:09 UTC)

Tahmin

Rapor saat 11:40 UTC de 2 saat ve 29 dakika önce yapıldı.
Ayın 04'si saat 12 UTC'den ayın 05'si saat 12 UTC'ye kadar geçerli Tahmin
Rüzgar değişken yönden 4 kt
Görüş mesafesi: 10 km
2000 ft yükseklikte az bulutlu
Ayın 05'si saat 0400 UTC'den
Rüzgar kuzeydan kt
Görüş mesafesi: 10 km
3000 ft yükseklikte az bulutlu
6000 ft yükseklikte parçalı bulutlu
Civarda sağanaklar

TAF: TNCM 041140Z 0412/0512 VRB04KT P6SM FEW020 FM050400 00000KT P6SM VCSH FEW030 SCT060

4.000'den fazla havaalanı için hava durumu gözlemleri ve tahminleri (METAR ve TAF raporları).

Kullanılabilir istasyonlar harita üzerinde sarı ve kırmızı noktalarla gösterilir.

İstasyonun adını görmek için fareyi noktanın üzerinde gezdirin.

Sonrasında hava gözlem ve tahminlerini görmek için tıklayın.

Haritayı değiştirmek için: yaklaştırmak için siyah artı işaretli yeşil düğmeye ve uzaklaştırmak için de eksi işaretli düğmeye hızla tıklayın; bitişik haritalar için yeşil okları kullanın.


METAR-TAF: